Aeroporto :
LOGIN :

Iscrizione | Disclaimer

   EN    FR    IT 

 










Sommario :    VFR   VFR Marginale   IFR   IFR Intensivo   IFR Molto Intensivo
Visibilità : 
Base nubi : 
>= 8 km
>= 3000ft
5 / 8 km
1000 / 3000 ft
1500m / 5 km
500 / 1000 ft
800 / 1500m
200 / 500 ft
< 800m
< 200 ft
Simboli :   Temporali  Nebbia  Neve Forte  Precipitazioni Forti  Vento > 20 kt
SIGMETs :   Varie  Temporali  Ghiacco  Turbolenza  Onda orograficha  Ceneri Vulcaniche






- Altitudine del aeroporto : 6 ft
- Codice IATA : PSA


LIRP - Galileo Galilei Pisa

ULTIMO METAR :
  • 282315Z 23002KT CAVOK 17/17 Q1015 NOSIG

METARs OBSOLETI :
  • 282245Z 18002KT CAVOK 17/17 Q1015 NOSIG
  • 282215Z VRB02KT CAVOK 17/17 Q1015 NOSIG
  • 282145Z 25003KT CAVOK 18/18 Q1015 NOSIG
  • 282115Z 31003KT CAVOK 19/19 Q1015 NOSIG
  • 282045Z 30003KT CAVOK 19/19 Q1015 NOSIG
  • 282015Z 31003KT CAVOK 20/19 Q1014 NOSIG
  • 281945Z 30004KT CAVOK 20/19 Q1014 NOSIG
  • 281915Z 31004KT CAVOK 20/19 Q1014 NOSIG
  • 281845Z 30005KT 9999 FEW080 20/19 Q1014 NOSIG

TAF TAF LIRP
Valido dal 29 a 00 ore il 30 a 00 ore UTC


282300Z 2900/2924 VRB03KT CAVOK
PROB30
TEMPO 2900/2904 5000 BR SCT040 BKN080
BECMG 2906/2908 15006KT 8000 SCT040 SCT080
BECMG 2910/2912 30012KT 9999 FEW020 BKN060



MetMap, La meteo Aeronautica in un colpo d'occhio ! - Copyright ORBIFLY Dicembre 2007 - Disclaimer

ORBIFLY MET'MAP TEAM :

Programmazione e sviluppo : Alexandra Zaïnal
Concezione : Baudouin d'Aumeries
Supporto tecnico e logistico : Manuel Goepfert
Aiuto : Marc-Olivier Méhu
Aiuto per la traduzione : Arnaldo La Scala




FONTI E CREDITI :

   NOAA